createdAt,value
2023-01-18T00:00:40.448Z,98442.91
2023-01-18T00:03:09.131Z,98442.14
2023-01-18T00:05:41.190Z,98448.14
2023-01-18T00:08:13.372Z,98454.08
2023-01-18T00:10:40.669Z,98454.55
2023-01-18T00:13:07.895Z,98454.84
2023-01-18T00:15:35.420Z,98457.14
2023-01-18T00:18:02.692Z,98460.04
2023-01-18T00:20:30.284Z,98462.23
2023-01-18T00:22:59.525Z,98456.59
2023-01-18T00:25:27.319Z,98460.77
2023-01-18T00:27:55.031Z,98449.66
2023-01-18T00:30:27.164Z,98452.14
2023-01-18T00:32:58.813Z,98451.85
2023-01-18T00:35:26.397Z,98451.20
2023-01-18T00:37:53.660Z,98445.58
2023-01-18T00:40:21.390Z,98443.05
2023-01-18T00:43:07.099Z,98442.92
2023-01-18T00:45:34.336Z,98441.67
2023-01-18T00:48:02.923Z,98439.84
2023-01-18T00:50:30.404Z,98431.34
2023-01-18T00:52:59.328Z,98433.77
2023-01-18T00:55:26.735Z,98430.05
2023-01-18T00:57:53.704Z,98433.05
2023-01-18T01:00:27.212Z,98434.26
2023-01-18T01:02:54.884Z,98431.34
2023-01-18T01:05:42.164Z,98436.27
2023-01-18T01:08:17.473Z,98429.21
2023-01-18T01:10:48.652Z,98423.17
2023-01-18T01:13:35.366Z,98425.37
2023-01-18T01:16:28.866Z,98418.31
2023-01-18T01:19:14.634Z,98417.55
2023-01-18T01:22:00.318Z,98408.73
2023-01-18T01:24:46.103Z,98407.30
2023-01-18T01:27:14.103Z,98415.48
2023-01-18T01:29:41.176Z,98424.34
2023-01-18T01:32:08.181Z,98422.10
2023-01-18T01:34:36.139Z,98415.83
2023-01-18T01:37:03.846Z,98413.38
2023-01-18T01:39:30.697Z,98401.39
2023-01-18T01:41:57.695Z,98395.25
2023-01-18T01:44:24.639Z,98391.31
2023-01-18T01:46:59.300Z,98383.95
2023-01-18T01:49:28.493Z,98384.58
2023-01-18T01:52:13.547Z,98385.47
2023-01-18T01:54:41.311Z,98379.32
2023-01-18T01:57:14.403Z,98389.24
2023-01-18T01:59:45.752Z,98391.23
2023-01-18T02:02:12.788Z,98392.46
2023-01-18T02:04:44.357Z,98384.25
2023-01-18T02:07:11.626Z,98385.71
2023-01-18T02:09:38.873Z,98381.56
2023-01-18T02:12:05.806Z,98378.19
2023-01-18T02:14:32.628Z,98373.70
2023-01-18T02:17:09.121Z,98378.44
2023-01-18T02:19:42.210Z,98373.31
2023-01-18T02:22:47.666Z,98368.45
2023-01-18T02:25:35.193Z,98368.55
2023-01-18T02:28:18.226Z,98365.80
2023-01-18T02:30:49.881Z,98365.25
2023-01-18T02:33:43.374Z,98361.80
2023-01-18T02:36:10.702Z,98355.74
2023-01-18T04:43:34.750Z,98319.34
2023-01-18T04:46:01.751Z,98327.23
2023-01-18T04:48:28.592Z,98331.04
2023-01-18T04:50:55.480Z,98333.92
2023-01-18T04:53:22.392Z,98335.02
2023-01-18T04:55:49.439Z,98335.47
2023-01-18T04:58:16.504Z,98327.74
2023-01-18T05:00:43.460Z,98318.98
2023-01-18T05:03:11.042Z,98317.02
2023-01-18T05:05:38.163Z,98312.11
2023-01-18T05:08:05.099Z,98304.65
2023-01-18T05:10:33.791Z,98305.54
2023-01-18T05:13:01.001Z,98309.46
2023-01-18T05:15:28.289Z,98305.91
2023-01-18T05:17:55.231Z,98299.14
2023-01-18T05:20:22.189Z,98298.70
2023-01-18T05:22:49.128Z,98301.87
2023-01-18T05:25:16.082Z,98303.41
2023-01-18T05:27:43.020Z,98297.27
2023-01-18T05:30:10.996Z,98302.92
2023-01-18T05:32:38.038Z,98299.95
2023-01-18T05:35:05.633Z,98282.25
2023-01-18T05:37:32.547Z,98282.25
2023-01-18T05:39:59.504Z,98282.80
2023-01-18T05:42:26.541Z,98273.91
2023-01-18T05:44:53.602Z,98272.77
2023-01-18T05:47:20.465Z,98264.86
2023-01-18T05:49:47.388Z,98259.34
2023-01-18T05:52:14.332Z,98254.11
2023-01-18T05:54:41.276Z,98249.85
2023-01-18T05:57:11.396Z,98249.70
2023-01-18T05:59:38.344Z,98245.11
2023-01-18T06:02:05.780Z,98233.80
2023-01-18T06:04:32.801Z,98230.66
2023-01-18T06:07:00.142Z,98234.09
2023-01-18T06:09:27.155Z,98228.73
2023-01-18T06:11:53.989Z,98226.83
2023-01-18T06:14:20.945Z,98230.09
2023-01-18T06:16:47.962Z,98228.51
2023-01-18T06:19:14.954Z,98242.84
2023-01-18T06:21:41.889Z,98243.73
2023-01-18T06:24:08.782Z,98245.83
2023-01-18T06:26:35.680Z,98238.02
2023-01-18T06:29:03.549Z,98234.13
2023-01-18T06:31:30.538Z,98235.11
2023-01-18T06:33:57.379Z,98235.09
2023-01-18T06:36:24.391Z,98242.20
2023-01-18T06:38:51.335Z,98238.37
2023-01-18T06:41:18.303Z,98231.54
2023-01-18T06:43:45.082Z,98231.31
2023-01-18T06:46:15.094Z,98228.98
2023-01-18T06:48:42.208Z,98230.29
2023-01-18T06:51:09.560Z,98238.39
2023-01-18T06:53:37.987Z,98236.96
2023-01-18T06:56:10.352Z,98231.77
2023-01-18T06:58:37.570Z,98225.52
2023-01-18T07:01:04.885Z,98225.16
2023-01-18T07:03:32.203Z,98223.37
2023-01-18T07:06:00.645Z,98220.66
2023-01-18T07:08:28.290Z,98220.23
2023-01-18T07:10:55.579Z,98221.02
2023-01-18T07:13:22.741Z,98225.67
2023-01-18T07:15:59.390Z,98224.34
2023-01-18T07:18:28.910Z,98221.44
2023-01-18T07:20:59.559Z,98221.88
2023-01-18T07:23:27.336Z,98227.17
2023-01-18T07:26:01.323Z,98233.45
2023-01-18T07:28:28.922Z,98227.23
2023-01-18T07:30:55.742Z,98225.16
2023-01-18T07:33:29.540Z,98221.11
2023-01-18T07:35:57.101Z,98221.35
2023-01-18T07:38:24.147Z,98217.80
2023-01-18T07:40:51.226Z,98208.77
2023-01-18T07:43:18.446Z,98207.64
2023-01-18T07:45:52.107Z,98210.40
2023-01-18T07:48:19.100Z,98209.36
2023-01-18T07:51:02.244Z,98214.31
2023-01-18T07:53:29.645Z,98211.47
2023-01-18T07:56:02.924Z,98216.14
2023-01-18T07:58:29.938Z,98212.90
2023-01-18T08:01:03.178Z,98208.09
2023-01-18T08:03:30.277Z,98209.63
2023-01-18T08:06:01.494Z,98208.10
2023-01-18T08:08:29.129Z,98208.59
2023-01-18T08:10:56.764Z,98199.33
2023-01-18T08:13:24.580Z,98197.47
2023-01-18T08:15:51.709Z,98192.40
2023-01-18T08:18:18.811Z,98192.94
2023-01-18T08:20:46.342Z,98199.52
2023-01-18T08:23:14.145Z,98203.94
2023-01-18T08:25:41.403Z,98205.41
2023-01-18T08:28:08.753Z,98207.63
2023-01-18T08:30:37.849Z,98205.27
2023-01-18T08:33:05.003Z,98201.60
2023-01-18T08:35:33.901Z,98197.05
2023-01-18T08:38:01.415Z,98197.60
2023-01-18T08:40:28.510Z,98190.58
2023-01-18T08:43:02.509Z,98189.73
2023-01-18T08:45:29.769Z,98188.02
2023-01-18T08:48:01.048Z,98187.60
2023-01-18T08:50:29.658Z,98185.08
2023-01-18T08:52:57.407Z,98181.84
2023-01-18T08:55:24.522Z,98172.80
2023-01-18T08:57:54.006Z,98169.33
2023-01-18T09:00:26.843Z,98176.38
2023-01-18T09:02:54.347Z,98178.41
2023-01-18T09:05:22.069Z,98177.61
2023-01-18T09:07:51.134Z,98179.95
2023-01-18T09:10:18.489Z,98167.30
2023-01-18T09:12:45.676Z,98158.99
2023-01-18T09:15:13.013Z,98157.60
2023-01-18T09:17:43.058Z,98150.40
2023-01-18T09:20:12.258Z,98143.31
2023-01-18T09:22:39.808Z,98143.39
2023-01-18T09:25:07.925Z,98136.73
2023-01-18T09:27:34.913Z,98130.65
2023-01-18T09:30:02.080Z,98136.20
2023-01-18T09:32:29.541Z,98137.08
2023-01-18T09:34:56.559Z,98135.15
2023-01-18T09:37:23.506Z,98137.52
2023-01-18T09:39:52.615Z,98128.61
2023-01-18T09:42:25.579Z,98135.23
2023-01-18T09:44:54.509Z,98132.41
2023-01-18T09:47:27.190Z,98136.25
2023-01-18T09:49:59.131Z,98139.52
2023-01-18T09:52:32.345Z,98129.83
2023-01-18T09:55:17.215Z,98125.35
2023-01-18T09:57:56.438Z,98122.96
2023-01-18T10:00:25.967Z,98126.42
2023-01-18T10:02:55.725Z,98117.63
2023-01-18T10:05:28.419Z,98118.33
2023-01-18T10:08:02.591Z,98113.63
2023-01-18T10:10:33.133Z,98115.02
2023-01-18T10:13:05.552Z,98109.44
2023-01-18T10:15:35.271Z,98112.15
2023-01-18T10:18:02.333Z,98116.80
2023-01-18T10:20:56.140Z,98119.28
2023-01-18T10:23:31.009Z,98115.88
2023-01-18T10:26:04.033Z,98116.00
2023-01-18T10:28:54.528Z,98106.40
2023-01-18T10:31:44.600Z,98097.84
2023-01-18T10:34:18.780Z,98093.25
2023-01-18T10:36:54.597Z,98093.13
2023-01-18T10:39:32.793Z,98083.23
2023-01-18T10:42:06.321Z,98087.93
2023-01-18T10:44:33.563Z,98089.09
2023-01-18T10:47:01.491Z,98095.58
2023-01-18T10:49:35.737Z,98092.27
2023-01-18T10:52:19.883Z,98086.48
2023-01-18T10:54:52.188Z,98084.45
2023-01-18T10:57:36.329Z,98085.77
2023-01-18T11:00:12.697Z,98079.34
2023-01-18T11:02:40.023Z,98077.73
2023-01-18T11:05:07.863Z,98073.04
2023-01-18T11:07:35.089Z,98063.85
2023-01-18T11:10:09.793Z,98067.27
2023-01-18T11:12:48.087Z,98076.55
2023-01-18T11:15:15.123Z,98077.52
2023-01-18T11:17:45.154Z,98076.44
2023-01-18T14:46:05.505Z,98107.16
2023-01-18T14:48:34.599Z,98102.13
2023-01-18T14:51:01.996Z,98118.88
2023-01-18T14:53:30.743Z,98117.81
2023-01-18T14:56:08.521Z,98123.40
2023-01-18T14:58:43.801Z,98127.13
2023-01-18T15:01:24.387Z,98135.94
2023-01-18T15:03:59.625Z,98146.48
2023-01-18T15:06:35.672Z,98150.64
2023-01-18T15:09:05.210Z,98150.38
2023-01-18T15:11:32.224Z,98143.65
2023-01-18T15:13:59.343Z,98144.38
2023-01-18T15:16:29.553Z,98142.91
2023-01-18T15:18:56.865Z,98148.81
2023-01-18T15:21:26.831Z,98147.36
2023-01-18T15:23:58.017Z,98149.09
2023-01-18T15:26:56.179Z,98152.81
2023-01-18T15:29:27.181Z,98154.85
2023-01-18T15:31:55.905Z,98159.42
2023-01-18T15:34:27.182Z,98164.88
2023-01-18T15:36:54.639Z,98159.44
2023-01-18T15:39:21.941Z,98163.40
2023-01-18T15:41:49.046Z,98170.58
2023-01-18T15:44:28.068Z,98168.33
2023-01-18T15:46:55.268Z,98171.39
2023-01-18T15:49:22.371Z,98169.45
2023-01-18T15:51:57.414Z,98162.15
2023-01-18T15:54:26.410Z,98156.11
2023-01-18T15:56:53.663Z,98157.30
2023-01-18T15:59:25.133Z,98155.25
2023-01-18T16:02:14.128Z,98152.34
2023-01-18T16:04:41.085Z,98153.30
2023-01-18T16:07:37.987Z,98153.28
2023-01-18T16:10:17.411Z,98142.83
2023-01-18T16:12:44.794Z,98144.79
2023-01-18T16:15:25.843Z,98158.39
2023-01-18T16:18:03.625Z,98168.90
2023-01-18T16:20:31.654Z,98160.96
2023-01-18T16:23:09.111Z,98163.84
2023-01-18T16:25:36.681Z,98172.02
2023-01-18T16:28:04.338Z,98179.93
2023-01-18T16:30:39.032Z,98179.05
2023-01-18T16:33:10.194Z,98181.55
2023-01-18T16:35:39.955Z,98183.59
2023-01-18T16:38:17.869Z,98185.02
2023-01-18T16:40:45.745Z,98189.67
2023-01-18T16:43:18.927Z,98191.59
2023-01-18T16:45:47.203Z,98196.17
2023-01-18T16:48:15.765Z,98198.15
2023-01-18T16:50:42.924Z,98197.02
2023-01-18T16:53:09.986Z,98199.91
2023-01-18T16:55:37.041Z,98205.73
2023-01-18T16:58:04.069Z,98204.13
2023-01-18T17:00:39.369Z,98213.02
2023-01-18T17:03:06.364Z,98211.40
2023-01-18T17:05:33.453Z,98212.85
2023-01-18T17:08:02.323Z,98217.69
2023-01-18T17:10:34.456Z,98219.98
2023-01-18T17:13:02.261Z,98233.98
2023-01-18T17:15:32.982Z,98230.03
2023-01-18T17:18:00.515Z,98233.52
2023-01-18T17:20:30.972Z,98221.37
2023-01-18T17:22:58.150Z,98251.45
2023-01-18T17:25:25.463Z,98242.07
2023-01-18T17:27:52.615Z,98249.72
2023-01-18T17:30:21.176Z,98252.04
2023-01-18T17:32:51.727Z,98246.77
2023-01-18T17:35:21.971Z,98260.90
2023-01-18T17:37:54.395Z,98272.67
2023-01-18T17:40:39.403Z,98285.48
2023-01-18T17:43:07.945Z,98285.43
2023-01-18T17:45:35.247Z,98283.29
2023-01-18T17:48:02.237Z,98287.99
2023-01-18T17:50:29.226Z,98291.05
2023-01-18T17:52:56.760Z,98287.99
2023-01-18T17:55:30.621Z,98288.16
2023-01-18T17:58:01.641Z,98291.40
2023-01-18T18:00:28.690Z,98293.02
2023-01-18T18:02:57.431Z,98314.52
2023-01-18T18:05:27.625Z,98309.09
2023-01-18T18:07:54.503Z,98317.87
2023-01-18T18:10:21.497Z,98322.58
2023-01-18T18:12:48.646Z,98312.59
2023-01-18T18:15:15.695Z,98332.09
2023-01-18T18:17:42.649Z,98353.52
2023-01-18T18:20:12.800Z,98356.77
2023-01-18T18:22:39.787Z,98348.86
2023-01-18T18:25:10.547Z,98345.96
2023-01-18T18:27:45.185Z,98343.10
2023-01-18T18:30:13.303Z,98339.31
2023-01-18T18:32:42.608Z,98333.40
2023-01-18T18:35:23.927Z,98342.91
2023-01-18T18:37:53.824Z,98328.05
2023-01-18T18:40:20.739Z,98321.54
2023-01-18T18:43:00.692Z,98323.90
2023-01-18T18:45:28.629Z,98326.69
2023-01-18T18:47:55.725Z,98329.40
2023-01-18T18:50:22.623Z,98331.92
2023-01-18T18:52:49.637Z,98338.01
2023-01-18T18:55:16.732Z,98336.37
2023-01-18T18:57:43.665Z,98331.32
2023-01-18T19:00:21.295Z,98341.13
2023-01-18T19:02:49.437Z,98346.86
2023-01-18T19:05:17.556Z,98344.54
2023-01-18T19:07:51.171Z,98357.65
2023-01-18T19:10:19.212Z,98372.98
2023-01-18T19:12:55.191Z,98373.90
2023-01-18T19:15:22.339Z,98370.77
2023-01-18T19:17:52.621Z,98377.18
2023-01-18T19:20:21.969Z,98398.35
2023-01-18T19:22:49.252Z,98406.15
2023-01-18T19:25:16.759Z,98410.22
2023-01-18T19:27:43.906Z,98409.52
2023-01-18T19:30:18.945Z,98410.48
2023-01-18T19:32:47.635Z,98420.34
2023-01-18T19:35:14.869Z,98427.98
2023-01-18T19:37:42.243Z,98433.38
2023-01-18T19:40:14.051Z,98437.90
2023-01-18T19:42:57.523Z,98442.73
2023-01-18T19:45:28.979Z,98444.65
2023-01-18T19:47:57.715Z,98456.67
2023-01-18T19:51:16.486Z,98456.38
2023-01-18T19:54:01.161Z,98476.09
2023-01-18T19:56:30.437Z,98480.11
2023-01-18T19:59:02.162Z,98477.48
2023-01-18T20:01:36.693Z,98476.64
2023-01-18T20:04:13.538Z,98491.61
2023-01-18T20:06:43.470Z,98484.23
2023-01-18T20:09:19.346Z,98502.04
2023-01-18T20:11:46.813Z,98511.14
2023-01-18T20:14:13.830Z,98516.95
2023-01-18T20:16:40.825Z,98530.66
2023-01-18T20:19:09.617Z,98540.09
2023-01-18T20:21:36.515Z,98538.55
2023-01-18T20:24:03.585Z,98548.02
2023-01-18T20:26:38.075Z,98536.23
2023-01-18T20:29:12.204Z,98545.34
2023-01-18T20:31:39.612Z,98550.12
2023-01-18T20:34:06.767Z,98557.61
2023-01-18T20:36:37.767Z,98569.56
2023-01-18T20:39:05.291Z,98568.87
2023-01-18T20:41:32.365Z,98568.23
2023-01-18T20:43:59.544Z,98582.11
2023-01-18T20:46:26.571Z,98586.05
2023-01-18T20:48:53.514Z,98581.46
2023-01-18T20:51:20.867Z,98576.31
2023-01-18T20:53:47.818Z,98579.45
2023-01-18T20:56:28.248Z,98583.07
2023-01-18T20:58:55.736Z,98586.52
2023-01-18T21:01:22.894Z,98580.79
2023-01-18T21:03:54.548Z,98585.91
2023-01-18T21:06:21.391Z,98591.30
2023-01-18T21:08:48.205Z,98584.83
2023-01-18T21:11:18.371Z,98579.71
2023-01-18T21:13:45.302Z,98578.51
2023-01-18T21:16:12.736Z,98575.63
2023-01-18T21:18:39.925Z,98588.11
2023-01-18T21:21:07.082Z,98600.84
2023-01-18T21:23:39.709Z,98593.21
2023-01-18T21:26:08.097Z,98594.31
2023-01-18T21:28:35.083Z,98604.73
2023-01-18T21:31:02.028Z,98616.79
2023-01-18T21:33:29.076Z,98627.61
2023-01-18T21:35:56.133Z,98632.50
2023-01-18T21:38:23.385Z,98636.92
2023-01-18T21:40:50.427Z,98639.66
2023-01-18T21:43:39.563Z,98640.02
2023-01-18T21:46:08.516Z,98641.52
2023-01-18T21:48:35.538Z,98646.19
2023-01-18T21:51:22.382Z,98646.77
2023-01-18T21:54:08.447Z,98643.74
